sensor_id;sensor_type;location;lat;lon;timestamp;pressure;altitude;pressure_sealevel;temperature;humidity
65614;BME280;52283;49.292;10.572;2023-04-25T00:01:03;95807.13;;;7.17;100.00
65614;BME280;52283;49.292;10.572;2023-04-25T00:03:29;95804.31;;;7.12;100.00
65614;BME280;52283;49.292;10.572;2023-04-25T00:05:58;95801.78;;;7.08;100.00
65614;BME280;52283;49.292;10.572;2023-04-25T00:08:27;95804.34;;;7.17;100.00
65614;BME280;52283;49.292;10.572;2023-04-25T00:10:53;95800.78;;;7.11;100.00
65614;BME280;52283;49.292;10.572;2023-04-25T00:13:20;95799.53;;;7.12;100.00
65614;BME280;52283;49.292;10.572;2023-04-25T00:15:47;95799.53;;;7.18;100.00
65614;BME280;52283;49.292;10.572;2023-04-25T00:18:13;95797.00;;;7.14;100.00
65614;BME280;52283;49.292;10.572;2023-04-25T00:20:40;95801.28;;;7.10;100.00
65614;BME280;52283;49.292;10.572;2023-04-25T00:23:13;95797.00;;;7.14;100.00
65614;BME280;52283;49.292;10.572;2023-04-25T00:25:42;95799.53;;;7.12;100.00
65614;BME280;52283;49.292;10.572;2023-04-25T00:28:09;95793.63;;;6.99;100.00
65614;BME280;52283;49.292;10.572;2023-04-25T00:30:35;95797.94;;;7.06;100.00
65614;BME280;52283;49.292;10.572;2023-04-25T00:33:02;95790.84;;;6.99;100.00
65614;BME280;52283;49.292;10.572;2023-04-25T00:35:28;95798.38;;;6.93;100.00
65614;BME280;52283;49.292;10.572;2023-04-25T00:37:55;95795.34;;;6.91;100.00
65614;BME280;52283;49.292;10.572;2023-04-25T00:40:23;95786.28;;;6.96;100.00
65614;BME280;52283;49.292;10.572;2023-04-25T00:42:51;95783.50;;;6.96;100.00
65614;BME280;52283;49.292;10.572;2023-04-25T00:45:18;95783.97;;;6.89;100.00
65614;BME280;52283;49.292;10.572;2023-04-25T00:47:46;95778.47;;;7.00;100.00
65614;BME280;52283;49.292;10.572;2023-04-25T00:50:13;95786.06;;;6.99;100.00
65614;BME280;52283;49.292;10.572;2023-04-25T00:52:43;95779.22;;;6.95;100.00
65614;BME280;52283;49.292;10.572;2023-04-25T00:55:10;95784.69;;;6.84;100.00
65614;BME280;52283;49.292;10.572;2023-04-25T00:57:40;95780.72;;;6.96;100.00
65614;BME280;52283;49.292;10.572;2023-04-25T01:00:07;95783.00;;;6.97;100.00
65614;BME280;52283;49.292;10.572;2023-04-25T01:02:36;95775.34;;;6.87;100.00
65614;BME280;52283;49.292;10.572;2023-04-25T01:05:04;95778.97;;;6.98;100.00
65614;BME280;52283;49.292;10.572;2023-04-25T01:07:30;95779.25;;;7.06;100.00
65614;BME280;52283;49.292;10.572;2023-04-25T01:09:57;95774.41;;;6.95;100.00
65614;BME280;52283;49.292;10.572;2023-04-25T01:12:24;95784.78;;;7.00;100.00
65614;BME280;52283;49.292;10.572;2023-04-25T01:14:52;95774.59;;;6.86;100.00
65614;BME280;52283;49.292;10.572;2023-04-25T01:17:18;95780.44;;;6.88;100.00
65614;BME280;52283;49.292;10.572;2023-04-25T01:19:46;95779.94;;;6.90;100.00
65614;BME280;52283;49.292;10.572;2023-04-25T01:22:15;95783.47;;;6.90;100.00
65614;BME280;52283;49.292;10.572;2023-04-25T01:24:42;95781.91;;;6.84;100.00
65614;BME280;52283;49.292;10.572;2023-04-25T01:27:09;95782.72;;;6.90;100.00
65614;BME280;52283;49.292;10.572;2023-04-25T01:29:36;95776.66;;;6.91;100.00
65614;BME280;52283;49.292;10.572;2023-04-25T01:32:03;95763.81;;;6.94;100.00
65614;BME280;52283;49.292;10.572;2023-04-25T01:34:29;95767.38;;;7.00;100.00
65614;BME280;52283;49.292;10.572;2023-04-25T01:36:56;95763.56;;;6.97;100.00
65614;BME280;52283;49.292;10.572;2023-04-25T01:39:24;95765.84;;;6.99;100.00
65614;BME280;52283;49.292;10.572;2023-04-25T01:41:51;95763.00;;;6.88;100.00
65614;BME280;52283;49.292;10.572;2023-04-25T01:44:17;95767.50;;;6.80;100.00
65614;BME280;52283;49.292;10.572;2023-04-25T01:46:44;95765.81;;;6.93;100.00
65614;BME280;52283;49.292;10.572;2023-04-25T01:49:10;95755.66;;;6.85;100.00
65614;BME280;52283;49.292;10.572;2023-04-25T01:51:37;95753.09;;;6.81;100.00
65614;BME280;52283;49.292;10.572;2023-04-25T01:54:03;95751.84;;;6.82;100.00
65614;BME280;52283;49.292;10.572;2023-04-25T01:56:32;95744.78;;;6.81;100.00
65614;BME280;52283;49.292;10.572;2023-04-25T01:58:58;95748.78;;;6.75;100.00
65614;BME280;52283;49.292;10.572;2023-04-25T02:01:25;95742.72;;;6.76;100.00
65614;BME280;52283;49.292;10.572;2023-04-25T02:03:51;95737.91;;;6.71;100.00
65614;BME280;52283;49.292;10.572;2023-04-25T02:06:18;95743.75;;;6.79;100.00
65614;BME280;52283;49.292;10.572;2023-04-25T02:08:44;95729.34;;;6.75;100.00
65614;BME280;52283;49.292;10.572;2023-04-25T02:11:11;95738.97;;;6.79;100.00
65614;BME280;52283;49.292;10.572;2023-04-25T02:13:39;95729.59;;;6.71;100.00
65614;BME280;52283;49.292;10.572;2023-04-25T02:16:05;95731.88;;;6.78;100.00
65614;BME280;52283;49.292;10.572;2023-04-25T02:18:32;95732.38;;;6.77;100.00
65614;BME280;52283;49.292;10.572;2023-04-25T02:20:59;95735.06;;;6.65;100.00
65614;BME280;52283;49.292;10.572;2023-04-25T02:23:26;95731.50;;;6.59;100.00
65614;BME280;52283;49.292;10.572;2023-04-25T02:25:52;95736.78;;;6.57;100.00
65614;BME280;52283;49.292;10.572;2023-04-25T02:28:20;95730.84;;;6.70;100.00
65614;BME280;52283;49.292;10.572;2023-04-25T02:30:48;95726.47;;;6.63;100.00
65614;BME280;52283;49.292;10.572;2023-04-25T02:33:14;95731.78;;;6.61;100.00
65614;BME280;52283;49.292;10.572;2023-04-25T02:35:42;95732.03;;;6.63;100.00
65614;BME280;52283;49.292;10.572;2023-04-25T02:38:08;95734.56;;;6.61;100.00
65614;BME280;52283;49.292;10.572;2023-04-25T02:40:35;95739.84;;;6.59;100.00
65614;BME280;52283;49.292;10.572;2023-04-25T02:43:01;95729.97;;;6.53;100.00
65614;BME280;52283;49.292;10.572;2023-04-25T02:45:28;95722.56;;;6.44;100.00
65614;BME280;52283;49.292;10.572;2023-04-25T02:47:55;95730.72;;;6.53;100.00
65614;BME280;52283;49.292;10.572;2023-04-25T02:50:22;95730.19;;;6.49;100.00
65614;BME280;52283;49.292;10.572;2023-04-25T02:52:49;95723.03;;;6.37;100.00
65614;BME280;52283;49.292;10.572;2023-04-25T02:55:15;95728.84;;;6.39;100.00
65614;BME280;52283;49.292;10.572;2023-04-25T02:57:42;95721.47;;;6.30;100.00
65614;BME280;52283;49.292;10.572;2023-04-25T03:00:09;95723.81;;;6.43;100.00
65614;BME280;52283;49.292;10.572;2023-04-25T03:02:36;95727.06;;;6.36;100.00
65614;BME280;52283;49.292;10.572;2023-04-25T03:05:05;95733.19;;;6.46;100.00
65614;BME280;52283;49.292;10.572;2023-04-25T03:07:31;95733.63;;;6.38;100.00
65614;BME280;52283;49.292;10.572;2023-04-25T03:09:57;95725.50;;;6.29;100.00
65614;BME280;52283;49.292;10.572;2023-04-25T03:12:24;95726.00;;;6.28;100.00
65614;BME280;52283;49.292;10.572;2023-04-25T03:14:50;95725.53;;;6.35;100.00
65614;BME280;52283;49.292;10.572;2023-04-25T03:17:17;95728.41;;;6.46;100.00
65614;BME280;52283;49.292;10.572;2023-04-25T03:19:43;95724.09;;;6.45;100.00
65614;BME280;52283;49.292;10.572;2023-04-25T03:22:11;95726.34;;;6.41;100.00
65614;BME280;52283;49.292;10.572;2023-04-25T03:24:37;95737.28;;;6.56;100.00
65614;BME280;52283;49.292;10.572;2023-04-25T03:27:04;95726.56;;;6.37;100.00
65614;BME280;52283;49.292;10.572;2023-04-25T03:29:30;95722.38;;;6.48;100.00
65614;BME280;52283;49.292;10.572;2023-04-25T03:31:57;95724.19;;;6.56;100.00
65614;BME280;52283;49.292;10.572;2023-04-25T03:34:23;95719.63;;;6.53;100.00
65614;BME280;52283;49.292;10.572;2023-04-25T03:36:51;95733.13;;;6.40;100.00
65614;BME280;52283;49.292;10.572;2023-04-25T03:39:18;95729.88;;;6.41;100.00
65614;BME280;52283;49.292;10.572;2023-04-25T03:41:45;95739.72;;;6.42;100.00
65614;BME280;52283;49.292;10.572;2023-04-25T03:44:11;95737.38;;;6.30;100.00
65614;BME280;52283;49.292;10.572;2023-04-25T03:46:38;95726.44;;;6.21;100.00
65614;BME280;52283;49.292;10.572;2023-04-25T03:49:04;95725.44;;;6.24;100.00
65614;BME280;52283;49.292;10.572;2023-04-25T03:51:31;95723.72;;;6.26;100.00
65614;BME280;52283;49.292;10.572;2023-04-25T03:53:57;95727.78;;;6.31;100.00
65614;BME280;52283;49.292;10.572;2023-04-25T03:56:25;95726.56;;;6.37;100.00
65614;BME280;52283;49.292;10.572;2023-04-25T03:58:52;95724.91;;;6.20;100.00
65614;BME280;52283;49.292;10.572;2023-04-25T04:01:18;95736.06;;;6.25;100.00
65614;BME280;52283;49.292;10.572;2023-04-25T04:03:45;95731.47;;;6.22;100.00
65614;BME280;52283;49.292;10.572;2023-04-25T04:06:12;95732.06;;;6.32;100.00
65614;BME280;52283;49.292;10.572;2023-04-25T04:08:38;95727.44;;;6.23;100.00
65614;BME280;52283;49.292;10.572;2023-04-25T04:11:05;95730.59;;;6.73;100.00
65614;BME280;52283;49.292;10.572;2023-04-25T04:13:33;95726.25;;;6.30;100.00
65614;BME280;52283;49.292;10.572;2023-04-25T04:15:59;95724.50;;;6.32;100.00
65614;BME280;52283;49.292;10.572;2023-04-25T04:18:26;95726.81;;;6.39;100.00
65614;BME280;52283;49.292;10.572;2023-04-25T04:20:52;95734.94;;;6.11;100.00
65614;BME280;52283;49.292;10.572;2023-04-25T04:23:19;95739.81;;;6.22;100.00
65614;BME280;52283;49.292;10.572;2023-04-25T04:25:45;95729.69;;;6.19;100.00
65614;BME280;52283;49.292;10.572;2023-04-25T04:28:13;95746.06;;;6.17;100.00
65614;BME280;52283;49.292;10.572;2023-04-25T04:30:40;95733.75;;;6.24;100.00
65614;BME280;52283;49.292;10.572;2023-04-25T04:33:07;95732.66;;;6.10;100.00
65614;BME280;52283;49.292;10.572;2023-04-25T04:35:34;95736.00;;;6.20;100.00
65614;BME280;52283;49.292;10.572;2023-04-25T04:38:00;95731.22;;;6.20;100.00
65614;BME280;52283;49.292;10.572;2023-04-25T04:40:27;95729.38;;;6.11;100.00
65614;BME280;52283;49.292;10.572;2023-04-25T04:42:55;95733.00;;;6.23;100.00
65614;BME280;52283;49.292;10.572;2023-04-25T04:45:22;95736.06;;;6.25;100.00
65614;BME280;52283;49.292;10.572;2023-04-25T04:47:50;95728.38;;;6.09;100.00
65614;BME280;52283;49.292;10.572;2023-04-25T04:50:17;95720.53;;;6.07;100.00
65614;BME280;52283;49.292;10.572;2023-04-25T04:52:44;95733.72;;;6.18;100.00
65614;BME280;52283;49.292;10.572;2023-04-25T04:55:10;95731.13;;;6.09;100.00
65614;BME280;52283;49.292;10.572;2023-04-25T04:57:37;95740.06;;;6.24;100.00
65614;BME280;52283;49.292;10.572;2023-04-25T05:00:05;95742.31;;;6.20;100.00
65614;BME280;52283;49.292;10.572;2023-04-25T05:02:36;95736.72;;;6.15;100.00
65614;BME280;52283;49.292;10.572;2023-04-25T05:05:04;95741.19;;;6.38;100.00
65614;BME280;52283;49.292;10.572;2023-04-25T05:07:31;95748.19;;;6.28;100.00
65614;BME280;52283;49.292;10.572;2023-04-25T05:09:57;95752.31;;;6.38;100.00
65614;BME280;52283;49.292;10.572;2023-04-25T05:12:24;95757.28;;;6.28;100.00
65614;BME280;52283;49.292;10.572;2023-04-25T05:14:50;95757.50;;;6.25;100.00
65614;BME280;52283;49.292;10.572;2023-04-25T05:17:16;95756.81;;;6.35;100.00
65614;BME280;52283;49.292;10.572;2023-04-25T05:19:43;95763.84;;;6.31;100.00
65614;BME280;52283;49.292;10.572;2023-04-25T05:22:11;95750.22;;;6.27;100.00
65614;BME280;52283;49.292;10.572;2023-04-25T05:24:37;95755.78;;;6.33;100.00
65614;BME280;52283;49.292;10.572;2023-04-25T05:27:04;95754.44;;;6.23;100.00
65614;BME280;52283;49.292;10.572;2023-04-25T05:29:31;95759.13;;;6.42;100.00
65614;BME280;52283;49.292;10.572;2023-04-25T05:31:58;95752.91;;;6.48;100.00
65614;BME280;52283;49.292;10.572;2023-04-25T05:34:24;95752.94;;;6.53;100.00
65614;BME280;52283;49.292;10.572;2023-04-25T05:36:51;95758.00;;;6.60;100.00
65614;BME280;52283;49.292;10.572;2023-04-25T05:39:18;95757.78;;;6.64;100.00
65614;BME280;52283;49.292;10.572;2023-04-25T05:41:45;95762.38;;;6.67;100.00
65614;BME280;52283;49.292;10.572;2023-04-25T05:44:12;95761.88;;;6.68;100.00
65614;BME280;52283;49.292;10.572;2023-04-25T05:46:38;95756.44;;;6.48;100.00
65614;BME280;52283;49.292;10.572;2023-04-25T05:49:05;95757.59;;;6.36;100.00
65614;BME280;52283;49.292;10.572;2023-04-25T05:51:32;95765.69;;;6.39;100.00
65614;BME280;52283;49.292;10.572;2023-04-25T05:53:58;95756.47;;;6.54;100.00
65614;BME280;52283;49.292;10.572;2023-04-25T05:56:26;95767.72;;;6.45;100.00
65614;BME280;52283;49.292;10.572;2023-04-25T05:58:52;95760.00;;;6.54;100.00
65614;BME280;52283;49.292;10.572;2023-04-25T06:01:21;95759.22;;;6.48;100.00
65614;BME280;52283;49.292;10.572;2023-04-25T06:03:48;95769.84;;;6.55;100.00
65614;BME280;52283;49.292;10.572;2023-04-25T06:06:16;95763.44;;;6.43;100.00
65614;BME280;52283;49.292;10.572;2023-04-25T06:08:43;95762.28;;;6.56;100.00
65614;BME280;52283;49.292;10.572;2023-04-25T06:11:10;95775.09;;;6.48;100.00
65614;BME280;52283;49.292;10.572;2023-04-25T06:13:37;95778.53;;;6.37;100.00
65614;BME280;52283;49.292;10.572;2023-04-25T06:16:04;95773.63;;;6.52;100.00
65614;BME280;52283;49.292;10.572;2023-04-25T06:18:31;95777.22;;;6.32;100.00
65614;BME280;52283;49.292;10.572;2023-04-25T06:20:57;95781.53;;;6.33;100.00
65614;BME280;52283;49.292;10.572;2023-04-25T06:23:24;95772.22;;;6.36;100.00
65614;BME280;52283;49.292;10.572;2023-04-25T06:25:50;95771.28;;;6.45;100.00
65614;BME280;52283;49.292;10.572;2023-04-25T06:28:17;95778.22;;;6.29;100.00
65614;BME280;52283;49.292;10.572;2023-04-25T06:30:45;95773.66;;;6.26;100.00
65614;BME280;52283;49.292;10.572;2023-04-25T06:33:11;95770.78;;;6.15;100.00
65614;BME280;52283;49.292;10.572;2023-04-25T06:35:37;95766.13;;;6.32;100.00
65614;BME280;52283;49.292;10.572;2023-04-25T06:38:04;95769.44;;;6.36;100.00
65614;BME280;52283;49.292;10.572;2023-04-25T06:40:31;95769.25;;;6.14;100.00
65614;BME280;52283;49.292;10.572;2023-04-25T06:42:57;95766.97;;;6.13;100.00
65614;BME280;52283;49.292;10.572;2023-04-25T06:45:24;95774.94;;;6.31;100.00
65614;BME280;52283;49.292;10.572;2023-04-25T06:47:52;95772.56;;;6.18;100.00
65614;BME280;52283;49.292;10.572;2023-04-25T06:50:18;95767.00;;;6.18;100.00
65614;BME280;52283;49.292;10.572;2023-04-25T06:52:45;95776.69;;;6.28;100.00
65614;BME280;52283;49.292;10.572;2023-04-25T06:55:11;95778.25;;;6.35;100.00
65614;BME280;52283;49.292;10.572;2023-04-25T06:57:37;95776.69;;;6.28;100.00
65614;BME280;52283;49.292;10.572;2023-04-25T07:00:05;95782.81;;;6.38;100.00
65614;BME280;52283;49.292;10.572;2023-04-25T07:02:34;95780.53;;;6.36;100.00
65614;BME280;52283;49.292;10.572;2023-04-25T07:05:02;95782.19;;;6.23;100.00
65614;BME280;52283;49.292;10.572;2023-04-25T07:07:29;95802.09;;;5.75;100.00
65614;BME280;52283;49.292;10.572;2023-04-25T07:09:55;95794.09;;;5.36;100.00
65614;BME280;52283;49.292;10.572;2023-04-25T07:12:22;95799.50;;;5.45;100.00
65614;BME280;52283;49.292;10.572;2023-04-25T07:14:48;95805.31;;;5.68;100.00
65614;BME280;52283;49.292;10.572;2023-04-25T07:17:15;95798.84;;;5.76;100.00
65614;BME280;52283;49.292;10.572;2023-04-25T07:19:41;95806.19;;;5.59;100.00
65614;BME280;52283;49.292;10.572;2023-04-25T07:22:10;95806.84;;;5.69;100.00
65614;BME280;52283;49.292;10.572;2023-04-25T07:24:36;95805.78;;;5.66;100.00
65614;BME280;52283;49.292;10.572;2023-04-25T07:27:03;95805.25;;;5.62;100.00
65614;BME280;52283;49.292;10.572;2023-04-25T07:29:30;95802.38;;;5.77;100.00
65614;BME280;52283;49.292;10.572;2023-04-25T07:31:57;95806.44;;;5.81;100.00
65614;BME280;52283;49.292;10.572;2023-04-25T07:34:23;95795.25;;;5.91;100.00
65614;BME280;52283;49.292;10.572;2023-04-25T07:36:49;95805.78;;;5.87;100.00
65614;BME280;52283;49.292;10.572;2023-04-25T07:39:17;95807.44;;;5.99;100.00
65614;BME280;52283;49.292;10.572;2023-04-25T07:41:44;95798.28;;;6.19;100.00
65614;BME280;52283;49.292;10.572;2023-04-25T07:44:10;95812.56;;;6.06;100.00
65614;BME280;52283;49.292;10.572;2023-04-25T07:46:37;95810.63;;;5.92;100.00
65614;BME280;52283;49.292;10.572;2023-04-25T07:49:03;95812.22;;;5.98;100.00
65614;BME280;52283;49.292;10.572;2023-04-25T07:51:29;95818.38;;;6.08;100.00
65614;BME280;52283;49.292;10.572;2023-04-25T07:53:56;95817.75;;;6.24;100.00
65614;BME280;52283;49.292;10.572;2023-04-25T07:56:24;95823.22;;;6.13;100.00
65614;BME280;52283;49.292;10.572;2023-04-25T07:58:51;95821.09;;;6.28;100.00
65614;BME280;52283;49.292;10.572;2023-04-25T08:01:17;95827.72;;;6.36;100.00
65614;BME280;52283;49.292;10.572;2023-04-25T08:03:45;95830.00;;;6.38;100.00
65614;BME280;52283;49.292;10.572;2023-04-25T08:06:11;95830.59;;;6.48;100.00
65614;BME280;52283;49.292;10.572;2023-04-25T08:08:38;95831.31;;;6.42;100.00
65614;BME280;52283;49.292;10.572;2023-04-25T08:11:05;95841.25;;;6.55;100.00
65614;BME280;52283;49.292;10.572;2023-04-25T08:13:32;95849.03;;;6.82;100.00
65614;BME280;52283;49.292;10.572;2023-04-25T08:15:59;95844.72;;;6.76;100.00
65614;BME280;52283;49.292;10.572;2023-04-25T08:18:25;95848.78;;;6.49;100.00
65614;BME280;52283;49.292;10.572;2023-04-25T08:20:52;95853.00;;;6.70;100.00
65614;BME280;52283;49.292;10.572;2023-04-25T08:23:18;95845.84;;;6.89;100.00
65614;BME280;52283;49.292;10.572;2023-04-25T08:25:45;95855.19;;;6.92;100.00
65614;BME280;52283;49.292;10.572;2023-04-25T08:28:11;95845.41;;;7.02;100.00
65614;BME280;52283;49.292;10.572;2023-04-25T08:30:39;95851.72;;;7.45;100.00
65614;BME280;52283;49.292;10.572;2023-04-25T08:33:06;95852.81;;;7.11;100.00
65614;BME280;52283;49.292;10.572;2023-04-25T08:35:33;95858.91;;;7.15;100.00
65614;BME280;52283;49.292;10.572;2023-04-25T08:37:59;95868.16;;;7.43;100.00
65614;BME280;52283;49.292;10.572;2023-04-25T08:40:27;95866.91;;;7.44;100.00
65614;BME280;52283;49.292;10.572;2023-04-25T08:42:57;95867.81;;;8.43;100.00
65614;BME280;52283;49.292;10.572;2023-04-25T08:45:24;95863.50;;;8.42;100.00
65614;BME280;52283;49.292;10.572;2023-04-25T08:47:53;95857.41;;;9.44;100.00
65614;BME280;52283;49.292;10.572;2023-04-25T08:50:22;95865.41;;;8.08;100.00
65614;BME280;52283;49.292;10.572;2023-04-25T08:52:53;95849.72;;;8.05;100.00
65614;BME280;52283;49.292;10.572;2023-04-25T08:55:21;95872.47;;;7.98;100.00
65614;BME280;52283;49.292;10.572;2023-04-25T08:57:48;95861.00;;;8.89;100.00
65614;BME280;52283;49.292;10.572;2023-04-25T09:00:16;95866.22;;;8.31;100.00
65614;BME280;52283;49.292;10.572;2023-04-25T09:02:43;95846.06;;;8.92;99.50
65614;BME280;52283;49.292;10.572;2023-04-25T09:05:12;95857.69;;;9.13;98.02
65614;BME280;52283;49.292;10.572;2023-04-25T09:07:39;95872.78;;;8.22;100.00
65614;BME280;52283;49.292;10.572;2023-04-25T09:10:06;95874.31;;;8.29;100.00
65614;BME280;52283;49.292;10.572;2023-04-25T09:12:32;95887.03;;;8.41;100.00
65614;BME280;52283;49.292;10.572;2023-04-25T09:15:07;95888.09;;;8.61;100.00
65614;BME280;52283;49.292;10.572;2023-04-25T09:17:33;95886.59;;;8.88;100.00
65614;BME280;52283;49.292;10.572;2023-04-25T09:20:07;95883.38;;;8.07;100.00
65614;BME280;52283;49.292;10.572;2023-04-25T09:22:36;95893.13;;;8.40;100.00
65614;BME280;52283;49.292;10.572;2023-04-25T09:25:08;95889.41;;;9.21;100.00
65614;BME280;52283;49.292;10.572;2023-04-25T09:27:35;95890.91;;;8.77;100.00
65614;BME280;52283;49.292;10.572;2023-04-25T09:30:02;95883.75;;;8.37;99.62
65614;BME280;52283;49.292;10.572;2023-04-25T09:32:29;95883.78;;;9.43;96.93
65614;BME280;52283;49.292;10.572;2023-04-25T09:34:57;95870.59;;;9.50;87.75
65614;BME280;52283;49.292;10.572;2023-04-25T09:37:25;95883.06;;;9.09;88.58
65614;BME280;52283;49.292;10.572;2023-04-25T09:39:55;95889.38;;;9.32;89.98
65614;BME280;52283;49.292;10.572;2023-04-25T09:42:22;95895.22;;;9.12;91.98
65614;BME280;52283;49.292;10.572;2023-04-25T09:44:52;95901.78;;;8.70;91.75
65614;BME280;52283;49.292;10.572;2023-04-25T09:47:19;95887.81;;;8.36;91.28
65614;BME280;52283;49.292;10.572;2023-04-25T09:49:48;95900.00;;;8.61;92.38
65614;BME280;52283;49.292;10.572;2023-04-25T09:52:16;95899.53;;;8.85;92.67
65614;BME280;52283;49.292;10.572;2023-04-25T09:54:42;95887.59;;;9.40;85.82
65614;BME280;52283;49.292;10.572;2023-04-25T09:57:14;95888.13;;;9.16;86.87
65614;BME280;52283;49.292;10.572;2023-04-25T09:59:45;95886.03;;;9.62;85.43
65614;BME280;52283;49.292;10.572;2023-04-25T10:02:13;95888.88;;;8.95;85.45
65614;BME280;52283;49.292;10.572;2023-04-25T10:04:41;95889.81;;;9.70;84.96
65614;BME280;52283;49.292;10.572;2023-04-25T10:07:08;95871.53;;;10.38;78.73
65614;BME280;52283;49.292;10.572;2023-04-25T10:09:37;95870.56;;;10.30;80.38
65614;BME280;52283;49.292;10.572;2023-04-25T10:12:06;95863.88;;;9.86;73.27
65614;BME280;52283;49.292;10.572;2023-04-25T10:14:34;95853.53;;;10.33;70.92
65614;BME280;52283;49.292;10.572;2023-04-25T10:17:01;95872.59;;;10.29;74.13
65614;BME280;52283;49.292;10.572;2023-04-25T10:19:28;95865.16;;;9.85;73.58
65614;BME280;52283;49.292;10.572;2023-04-25T10:22:02;95868.44;;;10.47;73.23
65614;BME280;52283;49.292;10.572;2023-04-25T10:24:29;95876.94;;;10.19;72.26
65614;BME280;52283;49.292;10.572;2023-04-25T10:26:56;95864.22;;;10.29;70.07
65614;BME280;52283;49.292;10.572;2023-04-25T10:29:24;95871.84;;;9.60;71.37
65614;BME280;52283;49.292;10.572;2023-04-25T10:31:52;95870.50;;;9.77;70.85
65614;BME280;52283;49.292;10.572;2023-04-25T10:34:19;95866.88;;;10.05;69.59
65614;BME280;52283;49.292;10.572;2023-04-25T10:36:50;95852.66;;;10.91;67.55
65614;BME280;52283;49.292;10.572;2023-04-25T10:39:22;95847.50;;;10.65;64.95
65614;BME280;52283;49.292;10.572;2023-04-25T10:41:52;95851.81;;;10.19;62.62
65614;BME280;52283;49.292;10.572;2023-04-25T10:44:18;95857.50;;;10.49;63.53
65614;BME280;52283;49.292;10.572;2023-04-25T10:46:45;95842.94;;;10.15;62.49
65614;BME280;52283;49.292;10.572;2023-04-25T10:49:28;95848.63;;;9.93;63.86
65614;BME280;52283;49.292;10.572;2023-04-25T10:52:11;95863.81;;;10.03;64.06
65614;BME280;52283;49.292;10.572;2023-04-25T10:54:40;95869.75;;;9.77;66.30
65614;BME280;52283;49.292;10.572;2023-04-25T10:57:07;95864.66;;;10.45;67.20
65614;BME280;52283;49.292;10.572;2023-04-25T10:59:34;95863.94;;;11.10;64.35
65614;BME280;52283;49.292;10.572;2023-04-25T11:02:11;95852.53;;;10.72;61.58
65614;BME280;52283;49.292;10.572;2023-04-25T11:04:40;95865.13;;;10.49;63.09
65614;BME280;52283;49.292;10.572;2023-04-25T11:07:13;95871.81;;;10.34;63.86
65614;BME280;52283;49.292;10.572;2023-04-25T11:09:44;95876.78;;;10.00;63.80
65614;BME280;52283;49.292;10.572;2023-04-25T11:12:11;95879.28;;;10.09;66.68
65614;BME280;52283;49.292;10.572;2023-04-25T11:14:39;95888.75;;;9.78;67.97
65614;BME280;52283;49.292;10.572;2023-04-25T11:17:05;95891.31;;;9.76;69.32
65614;BME280;52283;49.292;10.572;2023-04-25T11:19:32;95884.09;;;10.09;67.15
65614;BME280;52283;49.292;10.572;2023-04-25T11:22:01;95879.22;;;10.26;66.48
65614;BME280;52283;49.292;10.572;2023-04-25T11:24:28;95894.84;;;9.88;68.32
65614;BME280;52283;49.292;10.572;2023-04-25T11:26:55;95899.75;;;9.60;69.35
65614;BME280;52283;49.292;10.572;2023-04-25T11:29:22;95910.09;;;9.82;71.83
65614;BME280;52283;49.292;10.572;2023-04-25T11:31:48;95898.38;;;9.89;69.47
65614;BME280;52283;49.292;10.572;2023-04-25T11:34:17;95892.59;;;9.70;69.34
65614;BME280;52283;49.292;10.572;2023-04-25T11:36:44;95907.28;;;9.82;69.93
65614;BME280;52283;49.292;10.572;2023-04-25T11:39:12;95900.84;;;10.09;69.34
65614;BME280;52283;49.292;10.572;2023-04-25T11:41:41;95890.16;;;10.13;66.60
65614;BME280;52283;49.292;10.572;2023-04-25T11:44:07;95894.97;;;10.18;67.00
65614;BME280;52283;49.292;10.572;2023-04-25T11:46:34;95888.75;;;9.84;66.14
65614;BME280;52283;49.292;10.572;2023-04-25T11:49:01;95891.28;;;9.88;67.61
65614;BME280;52283;49.292;10.572;2023-04-25T11:51:27;95897.88;;;9.90;66.36
65614;BME280;52283;49.292;10.572;2023-04-25T11:53:55;95906.25;;;9.85;67.42
65614;BME280;52283;49.292;10.572;2023-04-25T11:56:23;95909.25;;;10.03;66.59
65614;BME280;52283;49.292;10.572;2023-04-25T11:58:57;95903.09;;;10.27;66.28
65614;BME280;52283;49.292;10.572;2023-04-25T12:01:28;95903.75;;;9.75;66.07
65614;BME280;52283;49.292;10.572;2023-04-25T12:03:55;95915.44;;;9.63;68.26
65614;BME280;52283;49.292;10.572;2023-04-25T12:06:26;95925.81;;;9.79;69.28
65614;BME280;52283;49.292;10.572;2023-04-25T12:09:00;95919.50;;;9.67;67.54
65614;BME280;52283;49.292;10.572;2023-04-25T12:11:29;95925.06;;;9.67;68.43
65614;BME280;52283;49.292;10.572;2023-04-25T12:14:01;95925.59;;;9.66;68.29
65614;BME280;52283;49.292;10.572;2023-04-25T12:16:28;95915.53;;;10.15;67.48
65614;BME280;52283;49.292;10.572;2023-04-25T12:18:55;95931.34;;;9.90;68.08
65614;BME280;52283;49.292;10.572;2023-04-25T12:21:22;95929.63;;;9.82;68.27
65614;BME280;52283;49.292;10.572;2023-04-25T12:23:48;95932.78;;;10.30;67.90
65614;BME280;52283;49.292;10.572;2023-04-25T12:26:15;95927.19;;;10.19;68.24
65614;BME280;52283;49.292;10.572;2023-04-25T12:28:47;95931.78;;;10.17;68.95
65614;BME280;52283;49.292;10.572;2023-04-25T12:31:13;95936.25;;;9.62;71.52
65614;BME280;52283;49.292;10.572;2023-04-25T12:33:41;95940.56;;;9.52;73.30
65614;BME280;52283;49.292;10.572;2023-04-25T12:36:09;95946.13;;;9.57;72.90
65614;BME280;52283;49.292;10.572;2023-04-25T12:38:38;95945.59;;;9.81;73.88
65614;BME280;52283;49.292;10.572;2023-04-25T12:41:05;95955.03;;;9.39;73.16
65614;BME280;52283;49.292;10.572;2023-04-25T12:43:32;95956.03;;;9.47;74.08
65614;BME280;52283;49.292;10.572;2023-04-25T12:46:00;95953.00;;;9.39;73.77
65614;BME280;52283;49.292;10.572;2023-04-25T12:48:27;95958.06;;;9.24;72.79
65614;BME280;52283;49.292;10.572;2023-04-25T12:50:53;95969.97;;;9.25;73.19
65614;BME280;52283;49.292;10.572;2023-04-25T12:53:21;95969.97;;;9.13;73.50